ěÝzenÝ letovÚho provozu ╚eskÚ republiky
Letiste: LKPD Aktualizace: 10.08.2022 15:59:33  UTC
 METAR LKPD 10.08. 16:00 ...
METAR LKPD 101600Z 04009KT 010V080 CAVOK 26/09 Q1024 NOSIG RMK BLU BLU=
 TAF LKPD 10.08. 11:00 ...
TAF LKPD 101100Z 1012/1112 07008KT CAVOK      TEMPO 1012/1018 07014KT      BECMG 1020/1022 VRB02KT      BECMG 1110/1112 07006KT=